Aérodrome :
LOGIN :

S'inscrire | Disclaimer

   EN    FR    IT 

 










Légende :    VFR   VFR Marginal   IFR   IFR Intensif   IFR Très Intensif
Visi : 
Plafond : 
>= 8 km
>= 3000ft
5 à 8 km
1000 à 3000 ft
1500m à 5 km
500 à 1000 ft
800 à 1500m
200 à 500 ft
< 800m
< 200 ft
Symboles :   Orages  Brouillard  Fortes neiges  Fortes précipitations  Vent > 20 kt
SIGMETs :   Divers  Orages  Givrage  Turbulence  Onde Orograph.  Cendres Volcan.







- Altitude de l'aérodrome : 388 ft
- Code IATA : QYR
- Voir les cartes d'approche


LFQB - Troyes Barberey

DERNIER METAR :
  • 202030Z AUTO 27020KT 9999 FEW027/// BKN048/// BKN062/// ///CB 10/09 Q1001

METARs EXPIRÉS :
  • 202000Z AUTO 27020KT 9999 FEW022/// SCT044/// BKN080/// ///TCU 10/09 Q1001
  • 201930Z AUTO 28016KT 9999 -DZ FEW013/// SCT019/// BKN025/// ///TCU 10/10 Q1001
  • 201900Z AUTO 29020KT 9999 -RA FEW030/// SCT037/// BKN050/// ///CB 09/08 Q1001
  • 201830Z AUTO 31019G36KT 3300 +RA BR FEW008/// BKN013/// BKN021/// ///TCU 09/08 Q1001
  • 201800Z AUTO 27015KT 5000 -RA BR FEW015 BKN023 OVC029 10/09 Q1000

TAF N/A
Pas de NOTAMs connus pour ce terrain.
2 SIGMETs publiés pour la FIR Paris (LFFF) :
 
Turbulence forte
LFFF SIGMET 8 VALID 202100/210100 LFPW
LFFF PARIS FIR/UIR SEV TURB FCST NE OF LINE N5100 E00145 - N4815 E00530 FL180/290 MOV NE 20KT NC=
Turbulence forte
LFFF SIGMET 7 VALID 201700/202100 LFPW
LFFF PARIS FIR/UIR SEV TURB FCST NE OF LINE N4815 E00515 - N5045 E00100 FL180/310 MOV NE 15KT NC=



MET'MAP, la Météo Aéronautique d'un coup d'oeil ! - Copyright ORBIFLY Décembre 2007 - Disclaimer

ORBIFLY MET'MAP TEAM :

Programmation & Développement : Alexandra Zaïnal
Conception & Développement : Baudouin d'Aumeries
Co-Programmation & Développement : Marc-Olivier Méhu
Soutien technique & logistique : Manuel Goepfert

Contact : metmap@orbifly.com




SOURCES & CREDITS :

   NOAA